General Aviation Weather

Text Reports

Enter one or more of the following location identifiers separated by a space:

Zip Code, Four-Character ICAO or Three-Character IATA airport codes.

METAR - Aviation Routine Weather Report
KDEW - Deer Park, Washington
Updated at 11:53 PM GMT on March 04, 2015 (3:53 PM PST):
METAR KDEW 042353Z AUTO 22010KT 10SM CLR 07/M08 A3024 RMK AO2 SLP262 T00721083 10078 21011 55009
TAF - Terminal Area Forecast
KDEW - Deer Park, Washington
Updated at 11:53 PM GMT on March 04, 2015 (3:53 PM PST):
No TAF is currently available for this location.
Decoded:
No decoded TAF is available.
PIREP - Pilot Weather Report
KDEW - Deer Park, Washington
Updated at 11:53 PM GMT on March 04, 2015 (3:53 PM PST):
No PIREP is currently available for this location.
AIRMET - Airmens Meteorological Information
KDEW - Deer Park, Washington
Updated at 11:53 PM GMT on March 04, 2015 (3:53 PM PST):
No AIRMET is currently available for this location.
SIGMET - Significant Meteorological Information
KDEW - Deer Park, Washington
Updated at 11:53 PM GMT on March 04, 2015 (3:53 PM PST):
No SIGMET is currently available for this location.
NOTAM - Notice to Airmen
KDEW - Deer Park, Washington
Updated at 11:53 PM GMT on March 04, 2015 (3:53 PM PST):
No NOTAM is currently available for this location.
Forecast Area
KDEW - Deer Park, Washington
Updated at 11:53 PM GMT on March 04, 2015 (3:53 PM PST):
No NOTAM is currently available for this location.
Aviation Weather Maps